createdAt,value
2022-08-14T00:01:54.887Z,101022.09
2022-08-14T00:04:36.158Z,101020.66
2022-08-14T00:07:08.214Z,101022.09
2022-08-14T00:09:55.204Z,101018.50
2022-08-14T00:12:24.305Z,101015.59
2022-08-14T00:14:53.129Z,101016.31
2022-08-14T00:17:21.665Z,101021.38
2022-08-14T00:19:48.361Z,101025.00
2022-08-14T00:22:44.455Z,101020.66
2022-08-14T00:25:05.537Z,101014.84
2022-08-14T00:27:35.419Z,101021.38
2022-08-14T00:30:07.678Z,101016.31
2022-08-14T00:32:52.598Z,101004.75
2022-08-14T00:35:22.876Z,101010.53
2022-08-14T00:38:09.244Z,101006.25
2022-08-14T00:40:36.249Z,101000.47
2022-08-14T00:43:02.605Z,101003.34
2022-08-14T00:45:30.556Z,100999.69
2022-08-14T00:47:58.399Z,101001.84
2022-08-14T00:50:28.330Z,101004.09
2022-08-14T00:52:55.891Z,101004.75
2022-08-14T00:55:23.402Z,101003.34
2022-08-14T00:58:08.344Z,100998.31
2022-08-14T01:00:43.082Z,100994.66
2022-08-14T01:03:19.095Z,101001.84
2022-08-14T01:05:51.969Z,100994.66
2022-08-14T01:08:20.617Z,100981.59
2022-08-14T01:11:05.877Z,100990.28
2022-08-14T01:13:42.646Z,100986.66
2022-08-14T01:16:10.655Z,100994.66
2022-08-14T01:19:12.328Z,100994.66
2022-08-14T01:21:47.180Z,100993.91
2022-08-14T01:24:24.694Z,100993.19
2022-08-14T01:26:57.910Z,100991.72
2022-08-14T01:29:44.638Z,100992.44
2022-08-14T01:32:13.714Z,100987.41
2022-08-14T01:35:18.269Z,100983.09
2022-08-14T01:37:28.795Z,100986.00
2022-08-14T01:39:57.939Z,100987.41
2022-08-14T01:42:31.081Z,100983.03
2022-08-14T01:44:58.692Z,100983.03
2022-08-14T01:47:25.373Z,100983.69
2022-08-14T01:49:59.586Z,100984.44
2022-08-14T01:52:34.135Z,100988.00
2022-08-14T01:55:17.357Z,100981.47
2022-08-14T01:57:49.502Z,100979.34
2022-08-14T02:00:28.430Z,100981.47
2022-08-14T02:02:58.180Z,100976.44
2022-08-14T02:05:38.500Z,100982.97
2022-08-14T02:08:09.632Z,100981.47
2022-08-14T02:10:46.071Z,100980.00
2022-08-14T02:13:13.522Z,100973.47
2022-08-14T02:15:43.462Z,100980.00
2022-08-14T02:18:10.281Z,100977.09
2022-08-14T02:20:38.286Z,100985.78
2022-08-14T02:23:06.468Z,100984.28
2022-08-14T02:25:34.762Z,100981.41
2022-08-14T02:28:22.590Z,100982.81
2022-08-14T02:30:48.255Z,100971.25
2022-08-14T02:33:18.878Z,100978.50
2022-08-14T02:35:52.885Z,100983.56
2022-08-14T02:38:30.628Z,100974.88
2022-08-14T02:41:01.301Z,100959.69
2022-08-14T02:43:36.452Z,100964.72
2022-08-14T02:46:03.972Z,100962.56
2022-08-14T02:49:02.063Z,100964.72
2022-08-14T02:51:22.453Z,100964.00
2022-08-14T02:53:49.727Z,100955.31
2022-08-14T02:56:30.529Z,100958.94
2022-08-14T02:59:06.657Z,100958.94
2022-08-14T03:01:50.178Z,100964.00
2022-08-14T03:04:20.167Z,100952.44
2022-08-14T03:07:06.338Z,100958.94
2022-08-14T03:09:41.849Z,100953.88
2022-08-14T03:12:31.802Z,100952.44
2022-08-14T03:14:59.490Z,100940.09
2022-08-14T03:17:26.836Z,100942.25
2022-08-14T03:19:58.501Z,100940.84
2022-08-14T03:22:25.349Z,100949.53
2022-08-14T03:24:54.226Z,100945.88
2022-08-14T03:27:20.602Z,100953.09
2022-08-14T03:29:52.818Z,100950.94
2022-08-14T03:32:20.301Z,100945.16
2022-08-14T03:34:58.482Z,100945.88
2022-08-14T03:37:51.594Z,100940.09
2022-08-14T03:40:17.589Z,100944.41
2022-08-14T03:42:45.323Z,100933.56
2022-08-14T03:45:18.905Z,100937.19
2022-08-14T03:48:01.949Z,100928.53
2022-08-14T03:50:31.586Z,100933.56
2022-08-14T03:53:00.476Z,100929.28
2022-08-14T03:55:28.376Z,100923.50
2022-08-14T03:57:56.865Z,100928.53
2022-08-14T04:00:40.588Z,100922.00
2022-08-14T04:03:10.251Z,100922.00
2022-08-14T04:05:42.924Z,100922.00
2022-08-14T04:08:29.539Z,100922.00
2022-08-14T04:10:58.091Z,100924.16
2022-08-14T04:13:24.535Z,100926.31
2022-08-14T04:16:01.266Z,100932.84
2022-08-14T04:18:29.776Z,100926.31
2022-08-14T04:20:58.023Z,100932.09
2022-08-14T04:23:29.636Z,100926.31
2022-08-14T04:26:00.305Z,100929.22
2022-08-14T04:29:07.227Z,100926.31
2022-08-14T04:31:13.262Z,100932.09
2022-08-14T04:33:41.963Z,100926.31
2022-08-14T04:36:09.284Z,100932.09
2022-08-14T04:39:00.755Z,100932.84
2022-08-14T04:41:53.198Z,100932.09
2022-08-14T04:44:35.846Z,100926.31
2022-08-14T04:47:21.454Z,100932.09
2022-08-14T04:49:57.007Z,100936.41
2022-08-14T04:52:24.680Z,100927.72
2022-08-14T04:54:51.372Z,100924.81
2022-08-14T04:57:17.723Z,100916.16
2022-08-14T04:59:45.645Z,100919.03
2022-08-14T05:02:13.556Z,100911.78
2022-08-14T05:04:45.548Z,100913.25
2022-08-14T05:07:46.454Z,100914.69
2022-08-14T05:10:12.744Z,100914.69
2022-08-14T05:13:24.527Z,100906.00
2022-08-14T05:15:29.385Z,100908.91
2022-08-14T05:18:16.939Z,100907.47
2022-08-14T05:21:55.191Z,100911.78
2022-08-14T05:23:34.561Z,100907.47
2022-08-14T05:26:03.718Z,100902.41
2022-08-14T05:28:30.910Z,100895.16
2022-08-14T05:31:01.709Z,100906.00
2022-08-14T05:33:30.330Z,100908.91
2022-08-14T05:36:01.131Z,100903.13
2022-08-14T05:38:31.046Z,100896.59
2022-08-14T05:40:58.180Z,100894.44
2022-08-14T05:43:24.543Z,100894.44
2022-08-14T05:46:08.660Z,100895.91
2022-08-14T05:48:43.193Z,100889.38
2022-08-14T05:51:09.971Z,100888.66
2022-08-14T05:53:36.502Z,100893.75
2022-08-14T05:56:08.856Z,100879.28
2022-08-14T05:58:40.946Z,100887.94
2022-08-14T06:01:09.394Z,100885.81
2022-08-14T06:03:36.693Z,100891.59
2022-08-14T06:06:06.674Z,100890.09
2022-08-14T06:08:41.455Z,100885.81
2022-08-14T06:11:08.445Z,100891.59
2022-08-14T06:13:44.957Z,100877.13
2022-08-14T06:16:12.438Z,100866.97
2022-08-14T06:18:39.713Z,100864.81
2022-08-14T06:21:06.169Z,100859.78
2022-08-14T06:23:39.890Z,100862.69
2022-08-14T06:26:06.366Z,100862.69
2022-08-14T06:28:33.005Z,100859.78
2022-08-14T06:31:00.732Z,100854.72
2022-08-14T06:35:01.086Z,100853.31
2022-08-14T06:36:13.558Z,100843.91
2022-08-14T06:38:44.794Z,100842.50
2022-08-14T06:41:11.361Z,100843.97
2022-08-14T06:43:45.517Z,100839.59
2022-08-14T06:46:17.457Z,100833.81
2022-08-14T06:48:59.021Z,100849.00
2022-08-14T06:51:25.412Z,100846.84
2022-08-14T06:54:05.421Z,100854.06
2022-08-14T06:56:34.885Z,100854.06
2022-08-14T06:59:01.550Z,100851.16
2022-08-14T07:01:50.483Z,100848.28
2022-08-14T07:04:41.607Z,100854.06
2022-08-14T07:07:07.981Z,100848.28
2022-08-14T07:09:44.349Z,100854.78
2022-08-14T07:12:54.244Z,100845.38
2022-08-14T07:15:04.789Z,100851.16
2022-08-14T07:17:32.147Z,100849.00
2022-08-14T07:20:02.797Z,100855.53
2022-08-14T07:22:32.920Z,100843.97
2022-08-14T07:25:15.505Z,100843.22
2022-08-14T07:27:42.739Z,100838.16
2022-08-14T07:30:09.673Z,100832.38
2022-08-14T07:32:56.072Z,100826.59
2022-08-14T07:35:22.441Z,100820.81
2022-08-14T07:37:50.035Z,100825.88
2022-08-14T07:40:22.129Z,100825.88
2022-08-14T07:42:54.212Z,100819.34
2022-08-14T07:45:20.565Z,100825.88
2022-08-14T07:47:48.728Z,100823.69
2022-08-14T07:50:16.409Z,100819.34
2022-08-14T07:52:45.323Z,100814.03
2022-08-14T07:55:13.081Z,100812.06
2022-08-14T07:57:40.709Z,100813.56
2022-08-14T08:00:11.571Z,100812.06
2022-08-14T08:03:00.267Z,100810.59
2022-08-14T08:05:27.261Z,100816.38
2022-08-14T08:07:53.695Z,100810.59
2022-08-14T08:11:01.322Z,100807.72
2022-08-14T08:13:22.259Z,100797.59
2022-08-14T08:15:51.307Z,100806.28
2022-08-14T08:18:27.372Z,100800.50
2022-08-14T08:20:55.476Z,100804.13
2022-08-14T08:23:34.411Z,100800.50
2022-08-14T08:26:07.301Z,100812.81
2022-08-14T08:28:34.382Z,100812.81
2022-08-14T08:31:01.530Z,100807.03
2022-08-14T08:33:32.262Z,100802.00
2022-08-14T08:36:03.449Z,100809.25
2022-08-14T08:39:17.615Z,100800.56
2022-08-14T08:41:16.201Z,100794.78
2022-08-14T08:43:46.293Z,100793.31
2022-08-14T08:46:21.621Z,100790.41
2022-08-14T08:51:22.572Z,100794.78
2022-08-14T08:54:04.289Z,100790.44
2022-08-14T08:56:39.748Z,100780.31
2022-08-14T08:59:19.131Z,100786.09
2022-08-14T09:01:49.860Z,100781.03
2022-08-14T09:04:19.238Z,100778.88
2022-08-14T09:07:00.337Z,100770.19
2022-08-14T09:09:33.876Z,100765.19
2022-08-14T09:12:01.363Z,100768.06
2022-08-14T09:14:29.489Z,100764.41
2022-08-14T09:16:59.049Z,100770.19
2022-08-14T09:19:26.121Z,100757.91
2022-08-14T09:21:54.924Z,100755.06
2022-08-14T09:24:29.193Z,100765.91
2022-08-14T09:26:57.512Z,100749.28
2022-08-14T09:29:24.265Z,100754.34
2022-08-14T09:31:57.570Z,100747.81
2022-08-14T09:34:34.574Z,100757.22
2022-08-14T09:37:11.877Z,100754.34
2022-08-14T09:39:42.881Z,100750.00
2022-08-14T09:42:33.440Z,100744.22
2022-08-14T09:45:10.652Z,100734.09
2022-08-14T09:47:40.522Z,100728.31
2022-08-14T09:50:18.730Z,100735.56
2022-08-14T09:52:54.148Z,100735.56
2022-08-14T09:55:21.802Z,100728.38
2022-08-14T09:57:48.223Z,100723.97
2022-08-14T10:00:30.513Z,100721.09
2022-08-14T10:03:05.738Z,100732.66
2022-08-14T10:05:33.655Z,100722.56
2022-08-14T10:08:00.767Z,100721.09
2022-08-14T10:10:38.109Z,100720.41
2022-08-14T10:13:20.253Z,100716.78
2022-08-14T10:15:46.630Z,100709.50
2022-08-14T10:18:18.350Z,100700.16
2022-08-14T10:20:52.308Z,100698.69
2022-08-14T10:23:19.502Z,100689.31
2022-08-14T10:25:50.548Z,100694.38
2022-08-14T10:28:51.647Z,100689.31
2022-08-14T10:31:15.535Z,100674.84
2022-08-14T10:33:41.893Z,100671.97
2022-08-14T10:36:08.324Z,100660.38
2022-08-14T10:38:42.494Z,100654.59
2022-08-14T10:41:17.098Z,100661.88
2022-08-14T10:43:44.900Z,100648.81
2022-08-14T10:47:36.337Z,100643.03
2022-08-14T10:49:04.855Z,100637.97
2022-08-14T10:51:34.044Z,100648.81
2022-08-14T10:54:17.193Z,100642.31
2022-08-14T10:56:55.763Z,100634.34
2022-08-14T10:59:30.677Z,100643.03
2022-08-14T11:01:59.913Z,100637.97
2022-08-14T11:04:28.400Z,100642.34
2022-08-14T11:06:57.271Z,100632.19
2022-08-14T11:09:23.741Z,100628.63
2022-08-14T11:11:56.558Z,100630.06
2022-08-14T11:14:42.877Z,100615.59
2022-08-14T11:17:09.332Z,100622.84
2022-08-14T11:19:36.019Z,100618.47
2022-08-14T11:22:03.053Z,100617.06
2022-08-14T11:24:50.464Z,100617.06
2022-08-14T11:27:19.125Z,100615.66
2022-08-14T11:29:45.534Z,100608.38
2022-08-14T11:32:20.115Z,100618.53
2022-08-14T11:34:46.661Z,100625.78
2022-08-14T11:37:22.942Z,100618.53
2022-08-14T11:39:53.389Z,100615.66
2022-08-14T11:42:56.884Z,100612.75
2022-08-14T11:45:11.380Z,100601.91
2022-08-14T11:48:12.575Z,100599.03
2022-08-14T11:50:36.930Z,100597.59
2022-08-14T11:53:04.472Z,100595.44
2022-08-14T11:55:34.682Z,100600.47
2022-08-14T11:58:03.251Z,100595.44
2022-08-14T12:00:32.504Z,100596.19
2022-08-14T12:03:06.685Z,100585.41
2022-08-14T12:05:34.299Z,100580.34
2022-08-14T12:08:06.683Z,100576.72
2022-08-14T12:10:42.445Z,100581.06
2022-08-14T12:13:12.289Z,100568.03
2022-08-14T12:15:44.881Z,100572.34
2022-08-14T12:18:11.924Z,100568.88
2022-08-14T12:20:53.231Z,100565.19
2022-08-14T12:23:25.910Z,100562.34
2022-08-14T12:26:31.686Z,100558.69
2022-08-14T12:29:00.493Z,100556.50
2022-08-14T12:31:27.034Z,100545.66
2022-08-14T12:34:02.193Z,100556.56
2022-08-14T12:36:37.345Z,100542.16
2022-08-14T12:39:05.263Z,100547.94
2022-08-14T12:41:34.242Z,100534.19
2022-08-14T12:44:04.707Z,100542.16
2022-08-14T12:46:43.509Z,100536.38
2022-08-14T12:49:16.108Z,100536.38
2022-08-14T12:51:43.369Z,100539.28
2022-08-14T12:54:27.286Z,100532.09
2022-08-14T12:57:27.987Z,100527.03
2022-08-14T12:59:59.280Z,100524.13
2022-08-14T13:02:29.821Z,100520.53
2022-08-14T13:04:57.895Z,100514.72
2022-08-14T13:07:26.878Z,100511.88
2022-08-14T13:09:59.336Z,100509.00
2022-08-14T13:12:32.216Z,100504.66
2022-08-14T13:15:01.514Z,100494.53
2022-08-14T13:17:41.306Z,100493.09
2022-08-14T13:20:10.210Z,100496.03
2022-08-14T13:22:38.536Z,100491.75
2022-08-14T13:25:09.360Z,100471.47
2022-08-14T13:27:39.155Z,100470.03
2022-08-14T13:30:10.268Z,100465.84
2022-08-14T13:32:39.314Z,100464.38
2022-08-14T13:35:12.158Z,100461.50
2022-08-14T13:37:44.364Z,100454.19
2022-08-14T13:40:12.203Z,100441.16
2022-08-14T13:42:43.594Z,100433.94
2022-08-14T13:45:11.222Z,100424.50
2022-08-14T13:47:42.416Z,100436.91
2022-08-14T13:50:12.720Z,100434.06
2022-08-14T13:52:51.321Z,100423.91
2022-08-14T13:55:28.576Z,100418.06
2022-08-14T13:58:03.209Z,100410.78
2022-08-14T14:00:35.328Z,100416.56
2022-08-14T14:03:04.608Z,100405.75
2022-08-14T14:05:52.162Z,100410.78
2022-08-14T14:08:43.609Z,100405.75
2022-08-14T14:11:08.172Z,100400.75
2022-08-14T14:13:34.893Z,100396.47
2022-08-14T14:16:02.764Z,100400.81
2022-08-14T14:18:34.772Z,100396.47
2022-08-14T14:21:01.842Z,100376.91
2022-08-14T14:23:28.552Z,100376.91
2022-08-14T14:25:57.096Z,100379.06
2022-08-14T14:28:25.071Z,100374.75
2022-08-14T14:30:53.281Z,100375.44
2022-08-14T14:33:44.563Z,100369.66
2022-08-14T14:36:06.942Z,100371.88
2022-08-14T14:38:34.210Z,100371.88
2022-08-14T14:41:01.469Z,100360.28
2022-08-14T14:43:28.005Z,100354.50
2022-08-14T14:45:54.433Z,100360.28
2022-08-14T14:48:20.816Z,100350.16
2022-08-14T14:50:51.874Z,100344.38
2022-08-14T14:53:18.673Z,100358.84
2022-08-14T14:56:48.072Z,100355.94
2022-08-14T14:58:31.646Z,100338.59
2022-08-14T15:00:59.788Z,100346.59
2022-08-14T15:03:26.254Z,100340.03
2022-08-14T15:05:54.055Z,100347.31
2022-08-14T15:08:26.691Z,100351.63
2022-08-14T15:11:13.551Z,100357.41
2022-08-14T15:13:43.190Z,100363.19
2022-08-14T15:16:09.813Z,100360.31
2022-08-14T15:18:40.125Z,100346.59
2022-08-14T15:21:13.166Z,100346.59
2022-08-14T15:23:44.241Z,100335.75
2022-08-14T15:26:13.465Z,100335.75
2022-08-14T15:29:03.344Z,100336.47
2022-08-14T15:31:31.929Z,100337.19
2022-08-14T15:34:44.468Z,100338.69
2022-08-14T15:37:00.444Z,100325.63
2022-08-14T15:39:29.299Z,100334.31
2022-08-14T15:41:57.275Z,100319.81
2022-08-14T15:44:26.477Z,100326.38
2022-08-14T15:46:54.139Z,100321.31
2022-08-14T15:49:21.510Z,100318.41
2022-08-14T15:51:47.870Z,100316.97
2022-08-14T15:54:17.383Z,100322.75
2022-08-14T15:56:55.443Z,100316.97
2022-08-14T15:59:25.096Z,100309.03
2022-08-14T16:01:55.108Z,100302.59
2022-08-14T16:04:22.815Z,100312.03
2022-08-14T16:06:54.842Z,100305.50
2022-08-14T16:09:22.572Z,100297.47
2022-08-14T16:11:53.443Z,100298.25
2022-08-14T16:14:21.446Z,100292.44
2022-08-14T16:16:51.654Z,100298.94
2022-08-14T16:19:26.594Z,100288.81
2022-08-14T16:22:01.845Z,100294.59
2022-08-14T16:25:02.569Z,100285.91
2022-08-14T16:30:24.529Z,100277.94
2022-08-14T16:32:55.391Z,100276.50
2022-08-14T16:35:25.004Z,100274.31
2022-08-14T16:37:52.876Z,100267.13
2022-08-14T16:40:22.124Z,100262.03
2022-08-14T16:43:04.032Z,100269.28
2022-08-14T16:45:39.122Z,100253.38
2022-08-14T16:48:55.580Z,100258.44
2022-08-14T16:51:00.756Z,100257.72
2022-08-14T16:53:27.336Z,100259.91
2022-08-14T16:56:17.322Z,100257.72
2022-08-14T16:58:51.615Z,100248.31
2022-08-14T17:01:22.942Z,100248.31
2022-08-14T17:03:52.530Z,100250.50
2022-08-14T17:06:37.789Z,100250.50
2022-08-14T17:09:04.839Z,100257.00
2022-08-14T17:11:31.554Z,100245.44
2022-08-14T17:14:01.441Z,100243.28
2022-08-14T17:16:35.758Z,100241.81
2022-08-14T17:19:05.310Z,100237.50
2022-08-14T17:21:35.292Z,100233.88
2022-08-14T17:24:56.742Z,100240.41
2022-08-14T17:26:55.571Z,100237.50
2022-08-14T17:29:29.500Z,100235.31
2022-08-14T17:32:02.083Z,100226.66
2022-08-14T17:34:47.623Z,100225.19
2022-08-14T17:37:24.459Z,100228.81
2022-08-14T17:40:00.499Z,100228.81
2022-08-14T17:42:45.682Z,100230.22
2022-08-14T17:45:19.198Z,100231.72
2022-08-14T17:47:53.509Z,100231.72
2022-08-14T17:51:00.121Z,100228.81
2022-08-14T17:53:26.147Z,100225.91
2022-08-14T17:56:01.591Z,100238.22
2022-08-14T17:58:30.022Z,100242.53
2022-08-14T18:01:05.198Z,100243.28
2022-08-14T18:03:50.919Z,100238.22
2022-08-14T18:06:39.044Z,100249.81
2022-08-14T18:09:25.301Z,100251.25
2022-08-14T18:11:55.538Z,100252.75
2022-08-14T18:14:32.309Z,100246.19
2022-08-14T18:17:10.622Z,100248.41
2022-08-14T18:19:37.983Z,100259.25
2022-08-14T18:22:31.479Z,100254.91
2022-08-14T18:24:55.502Z,100253.47
2022-08-14T18:27:23.005Z,100252.78
2022-08-14T18:29:55.575Z,100260.72
2022-08-14T18:32:31.534Z,100262.19
2022-08-14T18:34:58.228Z,100260.72
2022-08-14T18:37:24.931Z,100267.97
2022-08-14T18:40:01.209Z,100260.72
2022-08-14T18:42:30.423Z,100260.72
2022-08-14T18:44:58.665Z,100267.97
2022-08-14T18:47:28.801Z,100269.44
2022-08-14T18:50:00.556Z,100262.91
2022-08-14T18:52:29.619Z,100263.66
2022-08-14T18:54:59.514Z,100262.19
2022-08-14T18:57:26.620Z,100269.44
2022-08-14T18:59:53.595Z,100281.75
2022-08-14T19:02:30.487Z,100286.81
2022-08-14T19:04:58.101Z,100292.59
2022-08-14T19:07:25.391Z,100288.28
2022-08-14T19:09:57.790Z,100297.69
2022-08-14T19:12:48.757Z,100294.13
2022-08-14T19:15:18.135Z,100298.47
2022-08-14T19:18:14.107Z,100299.94
2022-08-14T19:20:52.781Z,100299.94
2022-08-14T19:23:21.398Z,100301.41
2022-08-14T19:26:33.768Z,100297.06
2022-08-14T19:28:53.071Z,100291.28
2022-08-14T19:31:22.434Z,100282.56
2022-08-14T19:33:50.961Z,100288.38
2022-08-14T19:36:29.192Z,100278.28
2022-08-14T19:38:59.199Z,100288.44
2022-08-14T19:41:29.242Z,100282.59
2022-08-14T19:44:32.004Z,100286.94
2022-08-14T19:47:01.745Z,100286.97
2022-08-14T19:50:24.963Z,100292.75
2022-08-14T19:52:26.343Z,100291.28
2022-08-14T19:54:56.363Z,100284.06
2022-08-14T19:57:23.827Z,100288.44
2022-08-14T19:59:57.734Z,100285.50
2022-08-14T20:02:30.096Z,100285.53
2022-08-14T20:04:59.618Z,100286.97
2022-08-14T20:08:00.449Z,100291.28
2022-08-14T20:11:12.244Z,100281.19
2022-08-14T20:13:11.663Z,100287.00
2022-08-14T20:15:46.954Z,100271.78
2022-08-14T20:18:45.880Z,100274.00
2022-08-14T20:21:05.181Z,100266.00
2022-08-14T20:23:38.220Z,100260.97
2022-08-14T20:26:05.190Z,100262.41
2022-08-14T20:28:36.953Z,100257.34
2022-08-14T20:31:18.660Z,100256.63
2022-08-14T20:34:03.855Z,100261.69
2022-08-14T20:36:32.443Z,100262.41
2022-08-14T20:38:59.057Z,100263.88
2022-08-14T20:41:25.634Z,100266.78
2022-08-14T20:44:11.846Z,100275.47
2022-08-14T20:46:39.555Z,100265.34
2022-08-14T20:49:16.415Z,100274.75
2022-08-14T20:51:58.426Z,100274.06
2022-08-14T20:54:34.361Z,100268.28
2022-08-14T20:57:06.334Z,100274.06
2022-08-14T20:59:33.014Z,100282.06
2022-08-14T21:02:00.242Z,100276.97
2022-08-14T21:04:35.895Z,100277.00
2022-08-14T21:07:25.305Z,100278.38
2022-08-14T21:10:06.208Z,100274.81
2022-08-14T21:13:24.686Z,100276.25
2022-08-14T21:15:36.553Z,100267.56
2022-08-14T21:18:07.283Z,100269.75
2022-08-14T21:20:36.837Z,100262.50
2022-08-14T21:23:06.144Z,100261.06
2022-08-14T21:25:33.873Z,100255.97
2022-08-14T21:28:04.790Z,100253.81
2022-08-14T21:30:51.648Z,100257.44
2022-08-14T21:33:20.512Z,100262.50
2022-08-14T21:35:48.315Z,100262.50
2022-08-14T21:38:21.458Z,100261.06
2022-08-14T21:41:00.270Z,100257.47
2022-08-14T21:43:26.929Z,100253.84
2022-08-14T21:45:58.167Z,100246.56
2022-08-14T21:48:29.251Z,100249.47
2022-08-14T21:51:01.746Z,100253.84
2022-08-14T21:53:58.080Z,100248.78
2022-08-14T21:56:38.348Z,100250.22
2022-08-14T21:59:06.752Z,100248.06
2022-08-14T22:02:00.430Z,100242.94
2022-08-14T22:04:33.297Z,100239.31
2022-08-14T22:07:08.761Z,100243.69
2022-08-14T22:09:36.725Z,100239.31
2022-08-14T22:12:06.804Z,100237.84
2022-08-14T22:14:33.772Z,100233.53
2022-08-14T22:17:13.186Z,100239.28
2022-08-14T22:19:54.164Z,100244.38
2022-08-14T22:22:21.520Z,100240.75
2022-08-14T22:24:54.117Z,100245.13
2022-08-14T22:27:27.276Z,100243.63
2022-08-14T22:29:58.633Z,100239.31
2022-08-14T22:32:35.249Z,100242.22
2022-08-14T22:35:11.443Z,100242.22
2022-08-14T22:37:39.539Z,100236.44
2022-08-14T22:40:17.143Z,100228.47
2022-08-14T22:43:00.401Z,100224.84
2022-08-14T22:45:36.579Z,100229.19
2022-08-14T22:48:05.105Z,100221.94
2022-08-14T22:50:38.425Z,100216.16
2022-08-14T22:53:19.765Z,100215.44
2022-08-14T22:55:46.145Z,100219.78
2022-08-14T22:58:17.254Z,100211.78
2022-08-14T23:00:44.550Z,100214.72
2022-08-14T23:03:17.258Z,100218.31
2022-08-14T23:05:52.585Z,100221.22
2022-08-14T23:08:59.554Z,100214.69
2022-08-14T23:11:05.987Z,100214.69
2022-08-14T23:13:32.974Z,100208.88
2022-08-14T23:15:59.722Z,100208.16
2022-08-14T23:18:29.869Z,100213.25
2022-08-14T23:20:56.563Z,100215.44
2022-08-14T23:23:23.364Z,100210.38
2022-08-14T23:25:58.205Z,100210.38
2022-08-14T23:28:33.865Z,100213.25
2022-08-14T23:31:34.583Z,100214.69
2022-08-14T23:34:01.953Z,100211.78
2022-08-14T23:36:37.890Z,100211.78
2022-08-14T23:39:19.663Z,100215.44
2022-08-14T23:41:52.592Z,100208.88
2022-08-14T23:44:20.455Z,100214.69
2022-08-14T23:46:49.197Z,100207.44
2022-08-14T23:49:15.776Z,100214.69
2022-08-14T23:51:42.120Z,100217.56
2022-08-14T23:54:48.740Z,100207.44
2022-08-14T23:57:02.519Z,100210.34
2022-08-14T23:59:30.225Z,100208.16
